sensor_id;sensor_type;location;lat;lon;timestamp;temperature;humidity
44433;DHT22;30136;50.600;4.608;2022-10-14T00:00:02;24.60;60.00
44433;DHT22;30136;50.600;4.608;2022-10-14T00:01:18;24.60;59.90
44433;DHT22;30136;50.600;4.608;2022-10-14T00:02:20;24.50;59.90
44433;DHT22;30136;50.600;4.608;2022-10-14T00:03:21;24.60;60.00
44433;DHT22;30136;50.600;4.608;2022-10-14T00:04:22;24.50;60.00
44433;DHT22;30136;50.600;4.608;2022-10-14T00:05:22;24.50;59.90
44433;DHT22;30136;50.600;4.608;2022-10-14T00:06:26;24.50;59.90
44433;DHT22;30136;50.600;4.608;2022-10-14T00:07:28;24.50;59.90
44433;DHT22;30136;50.600;4.608;2022-10-14T00:08:29;24.50;59.90
44433;DHT22;30136;50.600;4.608;2022-10-14T00:09:32;24.60;59.90
44433;DHT22;30136;50.600;4.608;2022-10-14T00:10:36;24.50;59.90
44433;DHT22;30136;50.600;4.608;2022-10-14T00:11:38;24.50;59.80
44433;DHT22;30136;50.600;4.608;2022-10-14T00:12:39;24.50;59.90
44433;DHT22;30136;50.600;4.608;2022-10-14T00:13:40;24.50;59.90
44433;DHT22;30136;50.600;4.608;2022-10-14T00:14:41;24.60;59.90
44433;DHT22;30136;50.600;4.608;2022-10-14T00:15:42;24.50;59.90
44433;DHT22;30136;50.600;4.608;2022-10-14T00:16:45;24.50;59.90
44433;DHT22;30136;50.600;4.608;2022-10-14T00:17:47;24.50;59.90
44433;DHT22;30136;50.600;4.608;2022-10-14T00:18:48;24.50;60.10
44433;DHT22;30136;50.600;4.608;2022-10-14T00:19:49;24.50;59.90
44433;DHT22;30136;50.600;4.608;2022-10-14T00:20:57;24.50;59.90
44433;DHT22;30136;50.600;4.608;2022-10-14T00:21:59;24.50;59.70
44433;DHT22;30136;50.600;4.608;2022-10-14T00:23:00;24.50;59.80
44433;DHT22;30136;50.600;4.608;2022-10-14T00:24:01;24.50;59.70
44433;DHT22;30136;50.600;4.608;2022-10-14T00:25:02;24.50;59.50
44433;DHT22;30136;50.600;4.608;2022-10-14T00:26:04;24.50;59.50
44433;DHT22;30136;50.600;4.608;2022-10-14T00:27:07;24.50;59.40
44433;DHT22;30136;50.600;4.608;2022-10-14T00:28:08;24.60;59.40
44433;DHT22;30136;50.600;4.608;2022-10-14T00:29:14;24.60;59.30
44433;DHT22;30136;50.600;4.608;2022-10-14T00:30:18;24.60;59.30
44433;DHT22;30136;50.600;4.608;2022-10-14T00:31:19;24.60;59.30
44433;DHT22;30136;50.600;4.608;2022-10-14T00:32:21;24.60;59.30
44433;DHT22;30136;50.600;4.608;2022-10-14T00:33:25;24.60;59.20
44433;DHT22;30136;50.600;4.608;2022-10-14T00:34:27;24.60;59.10
44433;DHT22;30136;50.600;4.608;2022-10-14T00:35:30;24.70;59.20
44433;DHT22;30136;50.600;4.608;2022-10-14T00:36:32;24.70;59.20
44433;DHT22;30136;50.600;4.608;2022-10-14T00:37:32;24.70;59.10
44433;DHT22;30136;50.600;4.608;2022-10-14T00:38:34;24.70;59.10
44433;DHT22;30136;50.600;4.608;2022-10-14T00:39:35;24.70;59.10
44433;DHT22;30136;50.600;4.608;2022-10-14T00:40:36;24.70;59.10
44433;DHT22;30136;50.600;4.608;2022-10-14T00:41:37;24.70;59.10
44433;DHT22;30136;50.600;4.608;2022-10-14T00:42:38;24.60;59.10
44433;DHT22;30136;50.600;4.608;2022-10-14T00:45:19;24.70;59.10
44433;DHT22;30136;50.600;4.608;2022-10-14T00:46:23;24.70;59.10
44433;DHT22;30136;50.600;4.608;2022-10-14T00:47:31;24.70;59.10
44433;DHT22;30136;50.600;4.608;2022-10-14T00:48:33;24.70;59.10
44433;DHT22;30136;50.600;4.608;2022-10-14T00:49:39;24.70;59.10
44433;DHT22;30136;50.600;4.608;2022-10-14T00:50:42;24.70;59.10
44433;DHT22;30136;50.600;4.608;2022-10-14T00:51:50;24.70;59.00
44433;DHT22;30136;50.600;4.608;2022-10-14T00:52:53;24.70;59.10
44433;DHT22;30136;50.600;4.608;2022-10-14T00:53:55;24.70;59.10
44433;DHT22;30136;50.600;4.608;2022-10-14T00:55:01;24.70;59.00
44433;DHT22;30136;50.600;4.608;2022-10-14T00:56:06;24.70;59.00
44433;DHT22;30136;50.600;4.608;2022-10-14T00:57:09;24.70;59.10
44433;DHT22;30136;50.600;4.608;2022-10-14T00:58:10;24.70;59.10
44433;DHT22;30136;50.600;4.608;2022-10-14T00:59:13;24.70;59.10
44433;DHT22;30136;50.600;4.608;2022-10-14T01:00:16;24.70;59.10
44433;DHT22;30136;50.600;4.608;2022-10-14T01:01:18;24.70;59.10
44433;DHT22;30136;50.600;4.608;2022-10-14T01:02:19;24.70;59.20
44433;DHT22;30136;50.600;4.608;2022-10-14T01:03:22;24.60;59.20
44433;DHT22;30136;50.600;4.608;2022-10-14T01:04:24;24.70;59.20
44433;DHT22;30136;50.600;4.608;2022-10-14T01:05:31;24.70;59.30
44433;DHT22;30136;50.600;4.608;2022-10-14T01:06:39;24.60;59.30
44433;DHT22;30136;50.600;4.608;2022-10-14T01:09:30;24.60;59.30
44433;DHT22;30136;50.600;4.608;2022-10-14T01:10:40;24.60;59.40
44433;DHT22;30136;50.600;4.608;2022-10-14T01:14:11;24.60;59.40
44433;DHT22;30136;50.600;4.608;2022-10-14T01:17:13;24.60;59.50
44433;DHT22;30136;50.600;4.608;2022-10-14T01:18:32;24.50;59.40
44433;DHT22;30136;50.600;4.608;2022-10-14T01:21:44;24.60;59.50
44433;DHT22;30136;50.600;4.608;2022-10-14T01:29:08;24.50;59.50
44433;DHT22;30136;50.600;4.608;2022-10-14T01:30:22;24.50;59.60
44433;DHT22;30136;50.600;4.608;2022-10-14T01:31:29;24.50;59.60
44433;DHT22;30136;50.600;4.608;2022-10-14T01:33:55;24.50;59.70
44433;DHT22;30136;50.600;4.608;2022-10-14T01:35:09;24.50;59.80
44433;DHT22;30136;50.600;4.608;2022-10-14T01:36:31;24.50;59.90
44433;DHT22;30136;50.600;4.608;2022-10-14T01:37:38;24.50;59.80
44433;DHT22;30136;50.600;4.608;2022-10-14T01:40:54;24.50;60.00
44433;DHT22;30136;50.600;4.608;2022-10-14T01:42:06;24.50;60.00
44433;DHT22;30136;50.600;4.608;2022-10-14T01:43:11;24.40;60.00
44433;DHT22;30136;50.600;4.608;2022-10-14T01:44:16;24.40;60.00
44433;DHT22;30136;50.600;4.608;2022-10-14T01:45:20;24.40;60.00
44433;DHT22;30136;50.600;4.608;2022-10-14T01:46:24;24.40;60.00
44433;DHT22;30136;50.600;4.608;2022-10-14T01:47:29;24.40;60.20
44433;DHT22;30136;50.600;4.608;2022-10-14T01:48:34;24.40;60.20
44433;DHT22;30136;50.600;4.608;2022-10-14T01:49:43;24.40;60.20
44433;DHT22;30136;50.600;4.608;2022-10-14T01:50:48;24.40;60.20
44433;DHT22;30136;50.600;4.608;2022-10-14T01:51:55;24.40;60.30
44433;DHT22;30136;50.600;4.608;2022-10-14T01:53:05;24.40;60.30
44433;DHT22;30136;50.600;4.608;2022-10-14T01:54:11;24.40;60.30
44433;DHT22;30136;50.600;4.608;2022-10-14T01:55:18;24.40;60.30
44433;DHT22;30136;50.600;4.608;2022-10-14T01:56:21;24.40;60.20
44433;DHT22;30136;50.600;4.608;2022-10-14T01:57:26;24.40;60.40
44433;DHT22;30136;50.600;4.608;2022-10-14T01:58:29;24.30;60.30
44433;DHT22;30136;50.600;4.608;2022-10-14T01:59:33;24.30;60.30
44433;DHT22;30136;50.600;4.608;2022-10-14T02:00:35;24.40;60.40
44433;DHT22;30136;50.600;4.608;2022-10-14T02:01:37;24.40;60.50
44433;DHT22;30136;50.600;4.608;2022-10-14T02:02:39;24.40;60.50
44433;DHT22;30136;50.600;4.608;2022-10-14T02:03:43;24.40;60.50
44433;DHT22;30136;50.600;4.608;2022-10-14T02:04:45;24.40;60.40
44433;DHT22;30136;50.600;4.608;2022-10-14T02:05:51;24.40;60.40
44433;DHT22;30136;50.600;4.608;2022-10-14T02:07:11;24.30;60.40
44433;DHT22;30136;50.600;4.608;2022-10-14T02:11:16;24.30;60.40
44433;DHT22;30136;50.600;4.608;2022-10-14T02:12:37;24.30;60.50
44433;DHT22;30136;50.600;4.608;2022-10-14T02:16:58;24.30;60.30
44433;DHT22;30136;50.600;4.608;2022-10-14T02:18:16;24.30;60.40
44433;DHT22;30136;50.600;4.608;2022-10-14T02:19:36;24.40;60.50
44433;DHT22;30136;50.600;4.608;2022-10-14T02:22:28;24.30;60.40
44433;DHT22;30136;50.600;4.608;2022-10-14T02:23:40;24.30;60.40
44433;DHT22;30136;50.600;4.608;2022-10-14T02:24:48;24.30;60.40
44433;DHT22;30136;50.600;4.608;2022-10-14T02:25:53;24.30;60.40
44433;DHT22;30136;50.600;4.608;2022-10-14T02:26:57;24.30;60.40
44433;DHT22;30136;50.600;4.608;2022-10-14T02:28:02;24.30;60.50
44433;DHT22;30136;50.600;4.608;2022-10-14T02:29:04;24.30;60.50
44433;DHT22;30136;50.600;4.608;2022-10-14T02:30:07;24.30;60.50
44433;DHT22;30136;50.600;4.608;2022-10-14T02:31:12;24.30;60.60
44433;DHT22;30136;50.600;4.608;2022-10-14T02:32:19;24.30;60.80
44433;DHT22;30136;50.600;4.608;2022-10-14T02:33:27;24.20;60.50
44433;DHT22;30136;50.600;4.608;2022-10-14T02:34:33;24.20;60.60
44433;DHT22;30136;50.600;4.608;2022-10-14T02:35:36;24.20;60.50
44433;DHT22;30136;50.600;4.608;2022-10-14T02:36:39;24.30;60.60
44433;DHT22;30136;50.600;4.608;2022-10-14T02:37:42;24.30;60.60
44433;DHT22;30136;50.600;4.608;2022-10-14T02:38:45;24.30;60.50
44433;DHT22;30136;50.600;4.608;2022-10-14T02:40:13;24.20;60.60
44433;DHT22;30136;50.600;4.608;2022-10-14T02:41:18;24.20;60.60
44433;DHT22;30136;50.600;4.608;2022-10-14T02:42:20;24.20;60.70
44433;DHT22;30136;50.600;4.608;2022-10-14T02:43:21;24.20;60.70
44433;DHT22;30136;50.600;4.608;2022-10-14T02:44:22;24.20;60.60
44433;DHT22;30136;50.600;4.608;2022-10-14T02:45:25;24.20;60.60
44433;DHT22;30136;50.600;4.608;2022-10-14T02:46:28;24.20;60.70
44433;DHT22;30136;50.600;4.608;2022-10-14T02:47:29;24.20;60.50
44433;DHT22;30136;50.600;4.608;2022-10-14T02:48:30;24.20;60.90
44433;DHT22;30136;50.600;4.608;2022-10-14T02:49:32;24.20;60.70
44433;DHT22;30136;50.600;4.608;2022-10-14T02:50:33;24.20;60.60
44433;DHT22;30136;50.600;4.608;2022-10-14T02:51:34;24.20;60.50
44433;DHT22;30136;50.600;4.608;2022-10-14T02:52:35;24.20;60.60
44433;DHT22;30136;50.600;4.608;2022-10-14T02:53:36;24.20;60.60
44433;DHT22;30136;50.600;4.608;2022-10-14T02:54:37;24.20;60.60
44433;DHT22;30136;50.600;4.608;2022-10-14T02:55:37;24.20;60.40
44433;DHT22;30136;50.600;4.608;2022-10-14T02:56:39;24.20;60.40
44433;DHT22;30136;50.600;4.608;2022-10-14T02:57:40;24.20;60.60
44433;DHT22;30136;50.600;4.608;2022-10-14T02:58:41;24.20;60.60
44433;DHT22;30136;50.600;4.608;2022-10-14T02:59:42;24.20;60.60
44433;DHT22;30136;50.600;4.608;2022-10-14T03:00:43;24.20;60.60
44433;DHT22;30136;50.600;4.608;2022-10-14T03:01:46;24.20;60.60
44433;DHT22;30136;50.600;4.608;2022-10-14T03:02:47;24.20;60.50
44433;DHT22;30136;50.600;4.608;2022-10-14T03:03:50;24.20;60.60
44433;DHT22;30136;50.600;4.608;2022-10-14T03:04:51;24.20;60.60
44433;DHT22;30136;50.600;4.608;2022-10-14T03:05:52;24.20;60.70
44433;DHT22;30136;50.600;4.608;2022-10-14T03:06:54;24.20;60.60
44433;DHT22;30136;50.600;4.608;2022-10-14T03:07:57;24.20;60.70
44433;DHT22;30136;50.600;4.608;2022-10-14T03:09:00;24.20;60.60
44433;DHT22;30136;50.600;4.608;2022-10-14T03:10:01;24.20;60.40
44433;DHT22;30136;50.600;4.608;2022-10-14T03:11:04;24.20;60.50
44433;DHT22;30136;50.600;4.608;2022-10-14T03:12:06;24.20;60.50
44433;DHT22;30136;50.600;4.608;2022-10-14T03:13:07;24.20;60.60
44433;DHT22;30136;50.600;4.608;2022-10-14T03:14:13;24.20;60.80
44433;DHT22;30136;50.600;4.608;2022-10-14T03:15:15;24.20;60.90
44433;DHT22;30136;50.600;4.608;2022-10-14T03:16:16;24.20;60.70
44433;DHT22;30136;50.600;4.608;2022-10-14T03:17:18;24.20;60.90
44433;DHT22;30136;50.600;4.608;2022-10-14T03:18:21;24.20;60.80
44433;DHT22;30136;50.600;4.608;2022-10-14T03:19:26;24.20;60.80
44433;DHT22;30136;50.600;4.608;2022-10-14T03:20:29;24.20;60.70
44433;DHT22;30136;50.600;4.608;2022-10-14T03:21:31;24.20;60.80
44433;DHT22;30136;50.600;4.608;2022-10-14T03:22:32;24.20;60.80
44433;DHT22;30136;50.600;4.608;2022-10-14T03:23:33;24.20;60.70
44433;DHT22;30136;50.600;4.608;2022-10-14T03:24:34;24.20;60.80
44433;DHT22;30136;50.600;4.608;2022-10-14T03:25:55;24.20;60.80
44433;DHT22;30136;50.600;4.608;2022-10-14T03:27:00;24.20;60.90
44433;DHT22;30136;50.600;4.608;2022-10-14T03:28:02;24.20;60.80
44433;DHT22;30136;50.600;4.608;2022-10-14T03:29:16;24.20;60.70
44433;DHT22;30136;50.600;4.608;2022-10-14T03:30:27;24.20;60.80
44433;DHT22;30136;50.600;4.608;2022-10-14T03:31:34;24.20;61.00
44433;DHT22;30136;50.600;4.608;2022-10-14T03:32:56;24.20;61.10
44433;DHT22;30136;50.600;4.608;2022-10-14T03:34:16;24.20;60.90
44433;DHT22;30136;50.600;4.608;2022-10-14T03:35:18;24.20;61.20
44433;DHT22;30136;50.600;4.608;2022-10-14T03:36:22;24.10;60.90
44433;DHT22;30136;50.600;4.608;2022-10-14T03:37:27;24.10;60.80
44433;DHT22;30136;50.600;4.608;2022-10-14T03:38:30;24.10;60.80
44433;DHT22;30136;50.600;4.608;2022-10-14T03:39:33;24.10;60.80
44433;DHT22;30136;50.600;4.608;2022-10-14T03:40:39;24.10;61.00
44433;DHT22;30136;50.600;4.608;2022-10-14T03:41:43;24.20;61.00
44433;DHT22;30136;50.600;4.608;2022-10-14T03:42:45;24.20;60.80
44433;DHT22;30136;50.600;4.608;2022-10-14T03:43:48;24.20;60.70
44433;DHT22;30136;50.600;4.608;2022-10-14T03:44:50;24.10;60.80
44433;DHT22;30136;50.600;4.608;2022-10-14T03:45:55;24.10;60.90
44433;DHT22;30136;50.600;4.608;2022-10-14T03:46:58;24.10;61.10
44433;DHT22;30136;50.600;4.608;2022-10-14T03:48:04;24.10;60.90
44433;DHT22;30136;50.600;4.608;2022-10-14T03:49:04;24.10;60.90
44433;DHT22;30136;50.600;4.608;2022-10-14T03:50:06;24.20;61.00
44433;DHT22;30136;50.600;4.608;2022-10-14T03:51:20;24.20;61.00
44433;DHT22;30136;50.600;4.608;2022-10-14T03:52:22;24.10;60.80
44433;DHT22;30136;50.600;4.608;2022-10-14T03:53:33;24.20;60.80
44433;DHT22;30136;50.600;4.608;2022-10-14T03:54:34;24.10;61.00
44433;DHT22;30136;50.600;4.608;2022-10-14T03:55:35;24.10;60.90
44433;DHT22;30136;50.600;4.608;2022-10-14T03:56:38;24.20;61.80
44433;DHT22;30136;50.600;4.608;2022-10-14T03:57:38;24.10;60.90
44433;DHT22;30136;50.600;4.608;2022-10-14T03:58:40;24.10;61.50
44433;DHT22;30136;50.600;4.608;2022-10-14T03:59:46;24.10;60.80
44433;DHT22;30136;50.600;4.608;2022-10-14T04:00:47;24.10;60.90
44433;DHT22;30136;50.600;4.608;2022-10-14T04:01:59;24.10;60.80
44433;DHT22;30136;50.600;4.608;2022-10-14T04:03:00;24.10;60.90
44433;DHT22;30136;50.600;4.608;2022-10-14T04:04:07;24.10;60.80
44433;DHT22;30136;50.600;4.608;2022-10-14T04:05:10;24.10;60.80
44433;DHT22;30136;50.600;4.608;2022-10-14T04:06:12;24.10;61.10
44433;DHT22;30136;50.600;4.608;2022-10-14T04:07:17;24.10;60.90
44433;DHT22;30136;50.600;4.608;2022-10-14T04:08:25;24.10;61.00
44433;DHT22;30136;50.600;4.608;2022-10-14T04:09:31;24.10;60.80
44433;DHT22;30136;50.600;4.608;2022-10-14T04:10:33;24.10;61.10
44433;DHT22;30136;50.600;4.608;2022-10-14T04:11:35;24.10;60.80
44433;DHT22;30136;50.600;4.608;2022-10-14T04:12:40;24.10;60.90
44433;DHT22;30136;50.600;4.608;2022-10-14T04:13:45;24.10;61.00
44433;DHT22;30136;50.600;4.608;2022-10-14T04:14:46;24.10;60.90
44433;DHT22;30136;50.600;4.608;2022-10-14T04:15:47;24.10;60.90
44433;DHT22;30136;50.600;4.608;2022-10-14T04:16:55;24.10;61.00
44433;DHT22;30136;50.600;4.608;2022-10-14T04:17:56;24.10;61.00
44433;DHT22;30136;50.600;4.608;2022-10-14T04:18:57;24.10;60.90
44433;DHT22;30136;50.600;4.608;2022-10-14T04:19:58;24.10;61.10
44433;DHT22;30136;50.600;4.608;2022-10-14T04:21:05;24.10;61.10
44433;DHT22;30136;50.600;4.608;2022-10-14T04:22:09;24.10;61.20
44433;DHT22;30136;50.600;4.608;2022-10-14T04:23:09;24.10;61.30
44433;DHT22;30136;50.600;4.608;2022-10-14T04:24:14;24.10;61.20
44433;DHT22;30136;50.600;4.608;2022-10-14T04:25:26;24.10;61.00
44433;DHT22;30136;50.600;4.608;2022-10-14T04:26:35;24.10;61.90
44433;DHT22;30136;50.600;4.608;2022-10-14T04:27:37;24.10;60.90
44433;DHT22;30136;50.600;4.608;2022-10-14T04:28:41;24.10;61.10
44433;DHT22;30136;50.600;4.608;2022-10-14T04:29:48;24.10;61.00
44433;DHT22;30136;50.600;4.608;2022-10-14T04:30:59;24.10;61.00
44433;DHT22;30136;50.600;4.608;2022-10-14T04:32:07;24.10;60.90
44433;DHT22;30136;50.600;4.608;2022-10-14T04:33:09;24.10;61.10
44433;DHT22;30136;50.600;4.608;2022-10-14T04:34:10;24.10;61.10
44433;DHT22;30136;50.600;4.608;2022-10-14T04:35:13;24.10;61.00
44433;DHT22;30136;50.600;4.608;2022-10-14T04:36:18;24.10;61.10
44433;DHT22;30136;50.600;4.608;2022-10-14T04:37:19;24.10;61.20
44433;DHT22;30136;50.600;4.608;2022-10-14T04:38:31;24.10;61.30
44433;DHT22;30136;50.600;4.608;2022-10-14T04:39:38;24.10;61.20
44433;DHT22;30136;50.600;4.608;2022-10-14T04:40:39;24.10;61.40
44433;DHT22;30136;50.600;4.608;2022-10-14T04:41:40;24.10;61.40
44433;DHT22;30136;50.600;4.608;2022-10-14T04:42:43;24.10;61.20
44433;DHT22;30136;50.600;4.608;2022-10-14T04:43:53;24.10;61.10
44433;DHT22;30136;50.600;4.608;2022-10-14T04:45:09;24.10;61.20
44433;DHT22;30136;50.600;4.608;2022-10-14T04:46:18;24.10;61.20
44433;DHT22;30136;50.600;4.608;2022-10-14T04:47:19;24.10;61.10
44433;DHT22;30136;50.600;4.608;2022-10-14T04:48:25;24.10;61.10
44433;DHT22;30136;50.600;4.608;2022-10-14T04:49:26;24.10;61.20
44433;DHT22;30136;50.600;4.608;2022-10-14T04:50:36;24.10;61.10
44433;DHT22;30136;50.600;4.608;2022-10-14T04:52:15;24.10;61.10
44433;DHT22;30136;50.600;4.608;2022-10-14T04:53:35;24.10;61.10
44433;DHT22;30136;50.600;4.608;2022-10-14T04:54:54;24.10;61.10
44433;DHT22;30136;50.600;4.608;2022-10-14T04:56:06;24.10;61.20
44433;DHT22;30136;50.600;4.608;2022-10-14T04:57:14;24.10;61.40
44433;DHT22;30136;50.600;4.608;2022-10-14T04:58:18;24.10;61.30
44433;DHT22;30136;50.600;4.608;2022-10-14T04:59:22;24.10;61.40
44433;DHT22;30136;50.600;4.608;2022-10-14T05:00:53;24.10;61.30
44433;DHT22;30136;50.600;4.608;2022-10-14T05:02:05;24.10;61.40
44433;DHT22;30136;50.600;4.608;2022-10-14T05:03:14;24.10;61.30
44433;DHT22;30136;50.600;4.608;2022-10-14T05:04:15;24.10;61.30
44433;DHT22;30136;50.600;4.608;2022-10-14T05:05:19;24.10;61.40
44433;DHT22;30136;50.600;4.608;2022-10-14T05:06:24;24.10;61.40
44433;DHT22;30136;50.600;4.608;2022-10-14T05:07:26;24.10;61.40
44433;DHT22;30136;50.600;4.608;2022-10-14T05:08:34;24.10;61.40
44433;DHT22;30136;50.600;4.608;2022-10-14T05:09:35;24.10;61.50
44433;DHT22;30136;50.600;4.608;2022-10-14T05:10:38;24.10;61.50
44433;DHT22;30136;50.600;4.608;2022-10-14T05:11:43;24.00;61.30
44433;DHT22;30136;50.600;4.608;2022-10-14T05:12:47;24.10;61.50
44433;DHT22;30136;50.600;4.608;2022-10-14T05:13:48;24.10;61.50
44433;DHT22;30136;50.600;4.608;2022-10-14T05:14:51;24.00;61.20
44433;DHT22;30136;50.600;4.608;2022-10-14T05:16:01;24.00;61.50
44433;DHT22;30136;50.600;4.608;2022-10-14T05:17:03;24.10;61.50
44433;DHT22;30136;50.600;4.608;2022-10-14T05:18:09;24.10;61.40
44433;DHT22;30136;50.600;4.608;2022-10-14T05:19:29;24.00;61.40
44433;DHT22;30136;50.600;4.608;2022-10-14T05:20:31;24.10;61.50
44433;DHT22;30136;50.600;4.608;2022-10-14T05:21:32;24.10;61.50
44433;DHT22;30136;50.600;4.608;2022-10-14T05:22:44;24.10;61.50
44433;DHT22;30136;50.600;4.608;2022-10-14T05:23:45;24.00;61.50
44433;DHT22;30136;50.600;4.608;2022-10-14T05:24:46;24.10;61.40
44433;DHT22;30136;50.600;4.608;2022-10-14T05:25:48;24.00;61.40
44433;DHT22;30136;50.600;4.608;2022-10-14T05:26:49;24.00;61.50
44433;DHT22;30136;50.600;4.608;2022-10-14T05:27:50;24.00;61.40
44433;DHT22;30136;50.600;4.608;2022-10-14T05:28:53;24.10;61.80
44433;DHT22;30136;50.600;4.608;2022-10-14T05:29:55;24.10;62.00
44433;DHT22;30136;50.600;4.608;2022-10-14T05:30:56;24.10;62.10
44433;DHT22;30136;50.600;4.608;2022-10-14T05:31:57;24.10;61.90
44433;DHT22;30136;50.600;4.608;2022-10-14T05:33:07;24.10;61.80
44433;DHT22;30136;50.600;4.608;2022-10-14T05:34:08;24.20;61.50
44433;DHT22;30136;50.600;4.608;2022-10-14T05:35:09;24.10;61.50
44433;DHT22;30136;50.600;4.608;2022-10-14T05:36:13;24.00;61.80
44433;DHT22;30136;50.600;4.608;2022-10-14T05:37:13;23.90;62.30
44433;DHT22;30136;50.600;4.608;2022-10-14T05:38:25;23.80;62.60
44433;DHT22;30136;50.600;4.608;2022-10-14T05:39:26;23.80;63.10
44433;DHT22;30136;50.600;4.608;2022-10-14T05:40:29;23.70;63.30
44433;DHT22;30136;50.600;4.608;2022-10-14T05:41:30;23.70;63.50
44433;DHT22;30136;50.600;4.608;2022-10-14T05:42:32;23.70;63.60
44433;DHT22;30136;50.600;4.608;2022-10-14T05:43:34;23.70;63.80
44433;DHT22;30136;50.600;4.608;2022-10-14T05:44:38;23.70;63.90
44433;DHT22;30136;50.600;4.608;2022-10-14T05:45:39;23.70;64.00
44433;DHT22;30136;50.600;4.608;2022-10-14T05:46:40;23.70;64.00
44433;DHT22;30136;50.600;4.608;2022-10-14T05:47:44;23.70;64.00
44433;DHT22;30136;50.600;4.608;2022-10-14T05:48:49;23.70;64.10
44433;DHT22;30136;50.600;4.608;2022-10-14T05:49:50;23.70;64.10
44433;DHT22;30136;50.600;4.608;2022-10-14T05:50:51;23.70;64.00
44433;DHT22;30136;50.600;4.608;2022-10-14T05:51:55;23.80;64.10
44433;DHT22;30136;50.600;4.608;2022-10-14T05:52:57;23.80;64.10
44433;DHT22;30136;50.600;4.608;2022-10-14T05:54:03;23.80;64.10
44433;DHT22;30136;50.600;4.608;2022-10-14T05:55:05;23.80;64.10
44433;DHT22;30136;50.600;4.608;2022-10-14T05:56:08;23.80;64.10
44433;DHT22;30136;50.600;4.608;2022-10-14T05:57:12;23.80;64.10
44433;DHT22;30136;50.600;4.608;2022-10-14T05:58:13;23.80;64.10
44433;DHT22;30136;50.600;4.608;2022-10-14T05:59:15;23.80;64.10
44433;DHT22;30136;50.600;4.608;2022-10-14T06:00:16;23.80;64.80
44433;DHT22;30136;50.600;4.608;2022-10-14T06:01:20;23.80;64.00
44433;DHT22;30136;50.600;4.608;2022-10-14T06:02:21;23.80;64.00
44433;DHT22;30136;50.600;4.608;2022-10-14T06:03:21;23.80;64.00
44433;DHT22;30136;50.600;4.608;2022-10-14T06:04:23;23.80;63.90
44433;DHT22;30136;50.600;4.608;2022-10-14T06:05:25;23.90;64.00
44433;DHT22;30136;50.600;4.608;2022-10-14T06:06:26;23.90;64.00
44433;DHT22;30136;50.600;4.608;2022-10-14T06:07:26;23.90;63.90
44433;DHT22;30136;50.600;4.608;2022-10-14T06:08:27;23.90;63.90
44433;DHT22;30136;50.600;4.608;2022-10-14T06:09:29;23.90;63.90
44433;DHT22;30136;50.600;4.608;2022-10-14T06:10:30;23.90;63.90
44433;DHT22;30136;50.600;4.608;2022-10-14T06:11:33;23.90;63.90
44433;DHT22;30136;50.600;4.608;2022-10-14T06:12:34;23.90;63.90
44433;DHT22;30136;50.600;4.608;2022-10-14T06:13:35;23.90;63.80
44433;DHT22;30136;50.600;4.608;2022-10-14T06:14:37;23.90;63.80
44433;DHT22;30136;50.600;4.608;2022-10-14T06:15:38;23.90;63.80
44433;DHT22;30136;50.600;4.608;2022-10-14T06:16:39;23.90;63.80
44433;DHT22;30136;50.600;4.608;2022-10-14T06:17:41;23.90;63.80
44433;DHT22;30136;50.600;4.608;2022-10-14T06:18:43;23.90;63.90
44433;DHT22;30136;50.600;4.608;2022-10-14T06:19:44;23.90;63.90
44433;DHT22;30136;50.600;4.608;2022-10-14T06:20:51;23.90;63.90
44433;DHT22;30136;50.600;4.608;2022-10-14T06:21:53;23.90;64.00
44433;DHT22;30136;50.600;4.608;2022-10-14T06:22:53;23.90;64.00
44433;DHT22;30136;50.600;4.608;2022-10-14T06:23:54;23.90;64.10
44433;DHT22;30136;50.600;4.608;2022-10-14T06:24:55;23.90;64.20
44433;DHT22;30136;50.600;4.608;2022-10-14T06:25:56;23.90;64.30
44433;DHT22;30136;50.600;4.608;2022-10-14T06:26:57;23.90;64.30
44433;DHT22;30136;50.600;4.608;2022-10-14T06:28:03;23.90;64.40
44433;DHT22;30136;50.600;4.608;2022-10-14T06:29:04;23.90;64.50
44433;DHT22;30136;50.600;4.608;2022-10-14T06:30:05;23.90;64.50
44433;DHT22;30136;50.600;4.608;2022-10-14T06:31:07;23.90;64.50
44433;DHT22;30136;50.600;4.608;2022-10-14T06:32:08;23.90;64.50
44433;DHT22;30136;50.600;4.608;2022-10-14T06:33:09;23.90;64.50
44433;DHT22;30136;50.600;4.608;2022-10-14T06:34:10;23.90;64.50
44433;DHT22;30136;50.600;4.608;2022-10-14T06:35:11;24.00;64.60
44433;DHT22;30136;50.600;4.608;2022-10-14T06:36:11;23.90;64.60
44433;DHT22;30136;50.600;4.608;2022-10-14T06:37:12;23.90;64.80
44433;DHT22;30136;50.600;4.608;2022-10-14T06:38:13;23.90;64.80
44433;DHT22;30136;50.600;4.608;2022-10-14T06:39:14;23.90;64.70
44433;DHT22;30136;50.600;4.608;2022-10-14T06:40:15;24.00;64.90
44433;DHT22;30136;50.600;4.608;2022-10-14T06:41:16;24.00;65.20
44433;DHT22;30136;50.600;4.608;2022-10-14T06:42:17;23.90;64.80
44433;DHT22;30136;50.600;4.608;2022-10-14T06:43:20;24.00;64.60
44433;DHT22;30136;50.600;4.608;2022-10-14T06:44:21;24.00;64.50
44433;DHT22;30136;50.600;4.608;2022-10-14T06:45:22;24.00;64.50
44433;DHT22;30136;50.600;4.608;2022-10-14T06:46:22;24.00;64.40
44433;DHT22;30136;50.600;4.608;2022-10-14T06:47:24;24.00;64.60
44433;DHT22;30136;50.600;4.608;2022-10-14T06:48:25;24.00;64.60
44433;DHT22;30136;50.600;4.608;2022-10-14T06:49:26;24.00;64.90
44433;DHT22;30136;50.600;4.608;2022-10-14T06:50:27;24.00;65.10
44433;DHT22;30136;50.600;4.608;2022-10-14T06:51:28;24.00;65.40
44433;DHT22;30136;50.600;4.608;2022-10-14T06:52:29;24.00;65.50
44433;DHT22;30136;50.600;4.608;2022-10-14T06:53:29;23.90;65.70
44433;DHT22;30136;50.600;4.608;2022-10-14T06:54:30;24.00;65.90
44433;DHT22;30136;50.600;4.608;2022-10-14T06:55:31;24.00;66.10
44433;DHT22;30136;50.600;4.608;2022-10-14T06:56:32;24.00;66.20
44433;DHT22;30136;50.600;4.608;2022-10-14T06:57:33;24.00;66.30
44433;DHT22;30136;50.600;4.608;2022-10-14T06:58:34;24.00;66.50
44433;DHT22;30136;50.600;4.608;2022-10-14T06:59:35;23.90;66.20
44433;DHT22;30136;50.600;4.608;2022-10-14T07:00:38;24.00;66.30
44433;DHT22;30136;50.600;4.608;2022-10-14T07:01:39;24.00;66.40
44433;DHT22;30136;50.600;4.608;2022-10-14T07:02:40;24.00;66.60
44433;DHT22;30136;50.600;4.608;2022-10-14T07:03:40;23.90;66.60
44433;DHT22;30136;50.600;4.608;2022-10-14T07:04:41;23.90;66.60
44433;DHT22;30136;50.600;4.608;2022-10-14T07:05:42;24.00;66.50
44433;DHT22;30136;50.600;4.608;2022-10-14T07:06:43;24.00;65.50
44433;DHT22;30136;50.600;4.608;2022-10-14T07:07:44;24.10;65.30
44433;DHT22;30136;50.600;4.608;2022-10-14T07:08:44;24.10;64.90
44433;DHT22;30136;50.600;4.608;2022-10-14T07:09:45;24.10;64.80
44433;DHT22;30136;50.600;4.608;2022-10-14T07:10:47;24.10;64.90
44433;DHT22;30136;50.600;4.608;2022-10-14T07:11:48;24.00;65.00